Time;durP1;ratioP1;P1;durP2;ratioP2;P2;SDS_P1;SDS_P2;PMS_P1;PMS_P2;Temp;Humidity;BMP_temperature;BMP_pressure;BME280_temperature;BME280_humidity;BME280_pressure;Samples;Min_cycle;Max_cycle;Signal;HPM_P1;HPM_P2
2023/04/23 00:00:17;;;;;;;29.58;17.98;;;11.10;99.90;;;;;;4109713;29;20178;-94
2023/04/23 00:02:33;;;;;;;24.52;18.20;;;11.10;99.90;;;;;;4111284;29;20190;-96
2023/04/23 00:05:04;;;;;;;24.10;17.17;;;11.20;99.90;;;;;;4097212;29;20194;-93
2023/04/23 00:07:29;;;;;;;23.38;17.48;;;11.00;99.90;;;;;;4111118;29;20190;-94
2023/04/23 00:10:07;;;;;;;25.23;17.13;;;10.90;99.90;;;;;;4099165;29;20216;-96
2023/04/23 00:12:28;;;;;;;27.95;17.35;;;11.00;99.90;;;;;;4118018;28;20237;-93
2023/04/23 00:15:05;;;;;;;30.35;17.20;;;11.00;99.90;;;;;;4115917;28;20186;-95
2023/04/23 00:17:21;;;;;;;22.30;16.33;;;11.00;99.90;;;;;;4288524;23;20231;-95
2023/04/23 00:20:44;;;;;;;21.83;16.05;;;11.10;99.90;;;;;;4118106;28;20177;-93
2023/04/23 00:22:57;;;;;;;23.05;16.08;;;11.00;99.90;;;;;;4120709;28;20163;-95
2023/04/23 00:25:27;;;;;;;23.73;16.13;;;10.80;99.90;;;;;;4115379;29;20210;-96
2023/04/23 00:28:08;;;;;;;;;;;;;;;;;;;;;
2023/04/23 00:35:57;;;;;;;22.75;15.85;;;11.00;99.90;;;;;;4504360;23;20233;-94
2023/04/23 00:38:26;;;;;;;20.60;14.68;;;11.00;99.90;;;;;;4100695;29;20680;-95
2023/04/23 00:41:06;;;;;;;26.05;16.35;;;11.10;99.90;;;;;;4070146;29;20181;-95
2023/04/23 00:46:04;;;;;;;19.25;14.55;;;11.10;99.90;;;;;;4387141;23;20302;-93
2023/04/23 00:49:22;;;;;;;;;;;;;;;;;;;;;
2023/04/23 01:00:28;;;;;;;22.83;16.15;;;11.00;99.90;;;;;;4101090;29;20202;-94
2023/04/23 01:03:00;;;;;;;23.25;15.20;;;11.10;99.90;;;;;;4104530;29;20175;-95
2023/04/23 01:06:04;;;;;;;20.77;14.95;;;11.10;99.90;;;;;;4053533;29;20189;-95
2023/04/23 01:08:57;;;;;;;21.42;15.75;;;11.10;99.90;;;;;;4044945;29;20201;-95
2023/04/23 01:11:24;;;;;;;24.02;14.90;;;11.10;99.90;;;;;;4072042;29;20184;-94
2023/04/23 01:22:17;;;;;;;;;;;;;;;;;;;;;
2023/04/23 01:27:23;;;;;;;;;;;;;;;;;;;;;
2023/04/23 01:30:10;;;;;;;20.98;14.02;;;11.50;99.90;;;;;;4101760;29;20170;-96
2023/04/23 01:36:50;;;;;;;;;;;;;;;;;;;;;
2023/04/23 01:42:23;;;;;;;19.63;12.93;;;11.60;99.90;;;;;;4100974;28;20186;-94
2023/04/23 01:44:29;;;;;;;18.50;12.75;;;11.70;99.90;;;;;;4101312;29;20183;-94
2023/04/23 01:46:30;;;;;;;22.20;13.88;;;11.70;99.90;;;;;;4200768;23;20226;-94
2023/04/23 01:55:05;;;;;;;19.58;11.80;;;11.80;99.90;;;;;;4058891;29;20234;-93
2023/04/23 01:57:13;;;;;;;19.42;13.10;;;11.70;99.90;;;;;;4058924;29;20184;-93
2023/04/23 01:59:38;;;;;;;15.73;11.50;;;11.70;99.90;;;;;;4043517;29;20173;-93
2023/04/23 02:01:46;;;;;;;19.58;11.27;;;11.70;99.90;;;;;;4058037;29;20227;-95
2023/04/23 02:03:49;;;;;;;16.85;11.32;;;11.60;99.90;;;;;;4041857;29;20197;-96
2023/04/23 02:05:53;;;;;;;14.88;11.18;;;11.50;99.90;;;;;;4059668;29;20231;-95
2023/04/23 02:07:55;;;;;;;17.23;10.90;;;11.40;99.90;;;;;;4061666;29;20177;-96
2023/04/23 02:09:56;;;;;;;14.77;10.75;;;11.30;99.90;;;;;;4044012;29;20181;-96
2023/04/23 02:12:09;;;;;;;18.42;11.73;;;11.40;99.90;;;;;;4046651;29;20221;-95
2023/04/23 02:14:11;;;;;;;17.30;11.35;;;11.40;99.90;;;;;;4068319;29;20204;-96
2023/04/23 02:16:14;;;;;;;15.18;10.80;;;11.30;99.90;;;;;;4029664;29;20838;-96
2023/04/23 02:18:16;;;;;;;19.35;11.30;;;11.30;99.90;;;;;;4053028;29;20181;-95
2023/04/23 02:20:40;;;;;;;15.80;10.52;;;11.20;99.90;;;;;;4067343;29;20192;-96
2023/04/23 02:22:50;;;;;;;18.08;10.95;;;11.10;99.90;;;;;;4036255;29;20229;-96
2023/04/23 02:24:55;;;;;;;15.80;10.68;;;11.00;99.90;;;;;;4051038;29;20242;-96
2023/04/23 02:27:04;;;;;;;18.77;10.68;;;11.00;99.90;;;;;;4053331;29;20232;-94
2023/04/23 02:29:30;;;;;;;17.15;10.90;;;11.00;99.90;;;;;;4052189;29;20174;-95
2023/04/23 02:31:45;;;;;;;19.05;10.15;;;11.00;99.90;;;;;;4068456;29;20229;-96
2023/04/23 02:34:04;;;;;;;;;;;;;;;;;;;;;
2023/04/23 02:36:21;;;;;;;14.43;9.98;;;11.00;99.90;;;;;;4054214;29;20181;-95
2023/04/23 02:39:37;;;;;;;14.75;10.18;;;10.90;99.90;;;;;;4056773;29;20189;-95
2023/04/23 02:45:39;;;;;;;17.05;9.85;;;10.90;99.90;;;;;;4008910;29;20237;-96
2023/04/23 02:47:58;;;;;;;14.50;9.65;;;10.80;99.90;;;;;;3982149;29;20325;-95
2023/04/23 02:50:17;;;;;;;18.48;10.90;;;10.70;99.90;;;;;;4049772;29;20173;-96
2023/04/23 02:53:14;;;;;;;16.45;10.77;;;10.80;99.90;;;;;;4052910;29;20273;-96
2023/04/23 02:55:33;;;;;;;14.80;10.75;;;10.90;99.90;;;;;;4056570;29;20226;-96
2023/04/23 02:58:19;;;;;;;;;;;;;;;;;;;;;
2023/04/23 03:00:42;;;;;;;14.00;10.68;;;10.90;99.90;;;;;;4033337;29;20216;-95
2023/04/23 03:02:51;;;;;;;15.98;10.90;;;10.80;99.90;;;;;;4026265;29;20200;-95
2023/04/23 03:04:57;;;;;;;16.15;11.77;;;10.80;99.90;;;;;;4047949;29;20198;-96
2023/04/23 03:07:16;;;;;;;;;;;;;;;;;;;;;
2023/04/23 03:09:25;;;;;;;16.67;11.32;;;10.60;99.90;;;;;;4053396;29;20173;-96
2023/04/23 03:11:28;;;;;;;19.05;12.02;;;10.60;99.90;;;;;;4050704;29;20701;-96
2023/04/23 03:13:46;;;;;;;18.00;11.75;;;10.50;99.90;;;;;;4050246;29;20217;-96
2023/04/23 03:15:47;;;;;;;18.17;11.27;;;10.60;99.90;;;;;;4049616;29;20218;-94
2023/04/23 03:17:49;;;;;;;13.95;10.63;;;10.60;99.90;;;;;;4058546;29;20188;-95
2023/04/23 03:19:53;;;;;;;17.40;12.40;;;10.60;99.90;;;;;;4040622;29;20178;-94
2023/04/23 03:22:04;;;;;;;18.20;11.43;;;10.60;99.90;;;;;;4056582;29;20229;-93
2023/04/23 03:24:05;;;;;;;18.65;11.38;;;10.50;99.90;;;;;;4041976;29;20196;-95
2023/04/23 03:26:09;;;;;;;19.98;10.73;;;10.50;99.90;;;;;;4041967;29;20190;-94
2023/04/23 03:28:22;;;;;;;15.27;11.07;;;10.50;99.90;;;;;;4041506;29;20178;-94
2023/04/23 03:30:27;;;;;;;17.80;10.15;;;10.40;99.90;;;;;;4058674;29;20196;-94
2023/04/23 03:32:41;;;;;;;16.85;11.52;;;10.30;99.90;;;;;;4059524;29;20303;-95
2023/04/23 03:34:43;;;;;;;17.20;10.27;;;10.20;99.90;;;;;;4041400;29;20265;-93
2023/04/23 03:36:45;;;;;;;14.05;10.55;;;10.20;99.90;;;;;;4058227;29;20188;-94
2023/04/23 03:38:55;;;;;;;16.70;11.38;;;10.20;99.90;;;;;;4046822;29;20234;-94
2023/04/23 03:40:59;;;;;;;15.30;11.38;;;10.30;99.90;;;;;;4042055;29;20224;-95
2023/04/23 03:43:02;;;;;;;16.45;11.05;;;10.20;99.90;;;;;;4059208;29;20173;-95
2023/04/23 03:45:32;;;;;;;18.55;10.88;;;10.10;99.90;;;;;;4043207;29;20181;-96
2023/04/23 03:47:36;;;;;;;17.95;11.38;;;10.00;99.90;;;;;;4058572;29;20256;-94
2023/04/23 03:49:39;;;;;;;15.82;10.57;;;10.00;99.90;;;;;;4046190;29;20223;-94
2023/04/23 03:52:01;;;;;;;16.20;10.90;;;9.90;99.90;;;;;;4059621;29;20221;-96
2023/04/23 03:54:06;;;;;;;17.52;10.35;;;10.00;99.90;;;;;;4042547;29;20686;-96
2023/04/23 03:56:15;;;;;;;15.82;10.55;;;10.10;99.90;;;;;;4041974;29;20185;-95
2023/04/23 03:58:46;;;;;;;17.70;11.77;;;10.10;99.90;;;;;;4059492;29;20204;-95
2023/04/23 04:00:53;;;;;;;20.35;10.82;;;10.20;99.90;;;;;;4043876;29;20190;-95
2023/04/23 04:02:55;;;;;;;21.67;11.35;;;10.00;99.90;;;;;;4042623;29;20185;-95
2023/04/23 04:05:01;;;;;;;15.80;10.50;;;10.00;99.90;;;;;;4041503;29;20222;-96
2023/04/23 04:07:03;;;;;;;16.40;10.68;;;10.00;99.90;;;;;;4060868;29;20741;-95
2023/04/23 04:09:08;;;;;;;15.93;10.43;;;9.90;99.90;;;;;;4043247;29;20185;-94
2023/04/23 04:11:15;;;;;;;21.85;11.35;;;10.00;99.90;;;;;;4055965;29;20173;-95
2023/04/23 04:13:20;;;;;;;16.10;11.00;;;10.10;99.90;;;;;;4057867;29;20204;-95
2023/04/23 04:15:24;;;;;;;15.95;10.73;;;10.10;99.90;;;;;;4043338;29;20229;-96
2023/04/23 04:17:35;;;;;;;16.45;10.95;;;10.00;99.90;;;;;;4063316;29;20173;-96
2023/04/23 04:19:38;;;;;;;17.50;10.32;;;10.00;99.90;;;;;;4059149;29;20180;-94
2023/04/23 04:21:41;;;;;;;18.40;11.07;;;9.90;99.90;;;;;;4047506;29;20174;-95
2023/04/23 04:23:44;;;;;;;19.13;10.93;;;10.00;99.90;;;;;;4047662;29;20201;-95
2023/04/23 04:25:47;;;;;;;16.73;10.98;;;10.00;99.90;;;;;;4050796;29;20184;-94
2023/04/23 04:27:49;;;;;;;17.13;11.23;;;10.10;99.90;;;;;;4060985;29;20241;-96
2023/04/23 04:30:21;;;;;;;16.08;10.73;;;10.10;99.90;;;;;;4059758;29;20238;-96
2023/04/23 04:32:23;;;;;;;17.88;11.02;;;10.10;99.90;;;;;;4064476;29;20216;-95
2023/04/23 04:34:30;;;;;;;18.05;10.65;;;10.00;99.90;;;;;;4045991;29;20201;-95
2023/04/23 04:36:34;;;;;;;16.20;10.85;;;10.00;99.90;;;;;;4033131;29;20196;-95
2023/04/23 04:38:38;;;;;;;17.05;9.93;;;10.00;99.90;;;;;;4043683;29;20177;-94
2023/04/23 04:40:39;;;;;;;17.25;11.20;;;9.90;99.90;;;;;;4041418;29;20177;-94
2023/04/23 04:42:41;;;;;;;18.00;10.73;;;10.10;99.90;;;;;;4058699;29;20198;-94
2023/04/23 04:44:46;;;;;;;19.98;10.02;;;10.00;99.90;;;;;;4062320;29;20193;-94
2023/04/23 04:46:49;;;;;;;19.08;10.48;;;10.10;99.90;;;;;;4042585;29;20264;-94
2023/04/23 04:48:54;;;;;;;15.80;9.43;;;10.00;99.90;;;;;;4041530;29;20230;-94
2023/04/23 04:51:00;;;;;;;19.92;11.07;;;10.00;99.90;;;;;;4025751;29;20185;-95
2023/04/23 04:53:04;;;;;;;17.42;9.60;;;9.90;99.90;;;;;;4057974;29;20664;-95
2023/04/23 04:55:08;;;;;;;17.35;9.77;;;10.10;99.90;;;;;;4057349;29;20188;-95
2023/04/23 04:57:09;;;;;;;13.27;9.93;;;10.00;99.90;;;;;;4042834;29;20177;-94
2023/04/23 04:59:10;;;;;;;18.42;9.90;;;10.00;99.90;;;;;;4042543;29;20260;-94
2023/04/23 05:01:12;;;;;;;17.65;9.95;;;9.90;99.90;;;;;;4041659;29;20177;-94
2023/04/23 05:03:13;;;;;;;17.75;9.73;;;9.90;99.90;;;;;;4027027;29;20182;-95
2023/04/23 05:05:18;;;;;;;16.33;8.68;;;9.90;99.90;;;;;;4042697;29;20550;-96
2023/04/23 05:07:59;;;;;;;;;;;;;;;;;;;;;
2023/04/23 05:14:39;;;;;;;18.48;8.75;;;10.10;99.90;;;;;;4265099;23;20285;-95
2023/04/23 05:17:03;;;;;;;14.95;8.55;;;10.10;99.90;;;;;;4102586;29;20255;-94
2023/04/23 05:19:08;;;;;;;14.63;8.93;;;10.10;99.90;;;;;;4103256;28;20202;-96
2023/04/23 05:21:21;;;;;;;10.05;7.07;;;10.20;99.90;;;;;;4117995;29;20222;-95
2023/04/23 05:24:06;;;;;;;12.10;7.65;;;10.30;99.90;;;;;;4099882;29;20219;-94
2023/04/23 05:26:41;;;;;;;14.80;7.05;;;10.40;99.90;;;;;;4023449;29;20214;-95
2023/04/23 05:33:50;;;;;;;11.48;6.65;;;10.60;99.90;;;;;;4364336;23;20233;-94
2023/04/23 05:35:58;;;;;;;15.15;6.20;;;10.80;99.90;;;;;;4112036;29;20202;-94
2023/04/23 05:38:10;;;;;;;13.27;6.43;;;10.70;99.90;;;;;;4110271;29;20762;-96
2023/04/23 05:40:12;;;;;;;14.02;6.18;;;10.80;99.90;;;;;;4113145;28;20245;-94
2023/04/23 05:53:17;;;;;;;20.10;5.68;;;11.20;99.90;;;;;;3957088;30;20232;-96
2023/04/23 05:55:46;;;;;;;11.93;4.97;;;11.30;99.90;;;;;;3960784;29;20174;-95
2023/04/23 05:58:41;;;;;;;15.10;5.78;;;11.40;99.90;;;;;;4020154;29;20217;-95
2023/04/23 06:00:58;;;;;;;15.65;5.10;;;11.50;99.90;;;;;;4040351;29;20204;-95
2023/04/23 06:03:27;;;;;;;13.13;4.72;;;11.60;99.90;;;;;;4042734;29;20189;-94
2023/04/23 06:05:44;;;;;;;10.25;4.53;;;11.50;99.90;;;;;;4041977;29;20249;-94
2023/04/23 06:08:28;;;;;;;12.18;4.60;;;11.60;99.90;;;;;;4107513;28;20179;-95
2023/04/23 06:10:36;;;;;;;16.98;5.15;;;11.80;99.90;;;;;;4089024;29;20209;-94
2023/04/23 06:12:38;;;;;;;11.85;5.20;;;11.80;99.90;;;;;;4086411;29;20298;-94
2023/04/23 06:14:41;;;;;;;16.38;4.65;;;11.90;99.90;;;;;;4089205;29;20272;-94
2023/04/23 06:16:49;;;;;;;9.77;3.70;;;12.00;99.90;;;;;;4090843;29;20178;-95
2023/04/23 06:18:57;;;;;;;11.10;4.50;;;12.00;99.90;;;;;;4104278;29;20185;-94
2023/04/23 06:24:09;;;;;;;9.88;4.03;;;12.20;99.90;;;;;;4074722;28;20227;-95
2023/04/23 06:26:14;;;;;;;14.30;4.45;;;12.20;99.90;;;;;;4089899;29;20187;-95
2023/04/23 06:29:18;;;;;;;11.23;3.95;;;12.10;99.90;;;;;;4088549;29;20186;-94
2023/04/23 06:32:03;;;;;;;12.38;3.90;;;12.20;99.90;;;;;;4091903;28;20304;-93
2023/04/23 06:34:16;;;;;;;9.02;3.55;;;12.50;99.90;;;;;;4087904;29;20219;-94
2023/04/23 06:36:20;;;;;;;14.95;3.80;;;12.60;99.90;;;;;;4088311;29;20171;-95
2023/04/23 06:38:43;;;;;;;16.73;4.22;;;12.80;99.90;;;;;;4087369;29;20267;-94
2023/04/23 06:40:59;;;;;;;12.32;3.80;;;12.70;99.90;;;;;;4084741;29;20633;-94
2023/04/23 06:43:04;;;;;;;11.27;3.63;;;12.50;99.90;;;;;;4086932;29;20183;-93
2023/04/23 06:45:33;;;;;;;11.60;3.30;;;12.80;99.90;;;;;;4090476;29;20548;-96
2023/04/23 06:47:36;;;;;;;14.63;3.92;;;13.00;99.90;;;;;;4088409;29;20230;-93
2023/04/23 06:49:44;;;;;;;13.68;3.65;;;13.10;99.90;;;;;;4091201;29;20180;-93
2023/04/23 06:51:54;;;;;;;11.57;3.00;;;13.10;99.90;;;;;;4091935;29;20218;-95
2023/04/23 06:53:55;;;;;;;13.82;3.60;;;13.00;99.90;;;;;;4088529;29;20206;-94
2023/04/23 06:55:56;;;;;;;12.48;3.50;;;13.00;99.90;;;;;;4087964;29;20179;-94
2023/04/23 06:58:09;;;;;;;11.88;3.65;;;13.10;99.90;;;;;;4088684;29;20172;-94
2023/04/23 07:00:22;;;;;;;11.15;2.85;;;13.20;99.90;;;;;;4088037;29;20184;-94
2023/04/23 07:02:26;;;;;;;16.05;3.22;;;13.30;99.90;;;;;;4088082;29;20211;-94
2023/04/23 07:04:29;;;;;;;11.20;3.50;;;13.40;99.90;;;;;;4072032;29;20207;-95
2023/04/23 07:06:32;;;;;;;12.73;2.80;;;13.30;99.90;;;;;;4089108;29;20203;-93
2023/04/23 07:08:48;;;;;;;12.98;2.88;;;13.30;99.90;;;;;;4089105;29;20182;-94
2023/04/23 07:10:59;;;;;;;11.30;2.85;;;13.80;99.90;;;;;;4110296;28;20183;-92
2023/04/23 07:13:03;;;;;;;8.07;2.28;;;14.90;99.90;;;;;;4090832;29;20215;-94
2023/04/23 07:15:12;;;;;;;7.18;2.25;;;15.90;99.90;;;;;;4089966;29;20171;-93
2023/04/23 07:17:13;;;;;;;12.43;2.47;;;16.90;99.90;;;;;;4087922;29;20211;-93
2023/04/23 07:19:14;;;;;;;10.68;2.60;;;18.00;99.90;;;;;;4086697;29;20179;-93
2023/04/23 07:21:18;;;;;;;10.20;2.20;;;18.60;99.90;;;;;;4091699;29;20176;-96
2023/04/23 07:23:32;;;;;;;12.93;2.20;;;19.00;99.90;;;;;;4111015;28;20187;-95
2023/04/23 07:25:37;;;;;;;10.05;1.98;;;19.20;99.90;;;;;;4090736;29;20223;-95
2023/04/23 07:28:07;;;;;;;9.93;2.20;;;19.60;99.90;;;;;;4088666;29;20179;-96
2023/04/23 07:30:08;;;;;;;6.90;2.10;;;19.60;99.90;;;;;;4041396;29;20292;-96
2023/04/23 07:32:17;;;;;;;9.38;1.88;;;19.80;99.90;;;;;;4057487;29;20225;-95
2023/04/23 07:34:18;;;;;;;8.82;2.03;;;19.90;99.90;;;;;;4045473;29;20705;-96
2023/04/23 07:36:22;;;;;;;11.00;2.10;;;19.90;99.90;;;;;;4053978;29;20181;-93
2023/04/23 07:38:24;;;;;;;11.43;1.92;;;21.00;99.90;;;;;;4043815;29;20185;-94
2023/04/23 07:40:28;;;;;;;9.15;2.00;;;21.00;99.90;;;;;;4044638;29;20206;-94
2023/04/23 07:42:29;;;;;;;10.57;2.03;;;20.60;99.90;;;;;;4089223;29;20183;-96
2023/04/23 07:44:50;;;;;;;8.07;1.75;;;19.90;99.90;;;;;;4103079;28;20209;-95
2023/04/23 07:46:51;;;;;;;10.45;2.45;;;19.50;99.90;;;;;;4088177;29;20567;-95
2023/04/23 07:49:01;;;;;;;11.98;2.28;;;19.50;99.90;;;;;;4088584;29;20215;-94
2023/04/23 07:51:25;;;;;;;14.18;2.53;;;19.30;99.90;;;;;;4091309;29;20182;-96
2023/04/23 07:53:30;;;;;;;12.20;2.33;;;19.60;99.90;;;;;;4105946;28;20214;-94
2023/04/23 07:55:30;;;;;;;8.57;1.73;;;20.50;99.90;;;;;;4090045;29;20180;-95
2023/04/23 07:57:31;;;;;;;6.65;1.83;;;20.80;99.90;;;;;;4088462;29;20701;-94
2023/04/23 07:59:39;;;;;;;15.35;2.17;;;20.70;99.90;;;;;;4103951;28;20191;-95
2023/04/23 08:01:40;;;;;;;7.03;1.70;;;20.80;99.90;;;;;;4091659;29;20183;-93
2023/04/23 08:03:51;;;;;;;8.63;1.73;;;20.80;99.90;;;;;;4090349;29;20175;-95
2023/04/23 08:05:59;;;;;;;10.02;2.22;;;20.50;99.90;;;;;;4091299;29;20196;-94
2023/04/23 08:08:02;;;;;;;11.75;2.78;;;20.30;99.90;;;;;;4088473;29;20630;-94
2023/04/23 08:10:10;;;;;;;7.38;1.77;;;20.10;99.90;;;;;;4087533;29;20180;-94
2023/04/23 08:12:11;;;;;;;12.40;2.00;;;19.60;99.90;;;;;;4087357;29;20543;-94
2023/04/23 08:14:15;;;;;;;7.10;1.98;;;19.80;99.90;;;;;;4089266;29;20200;-94
2023/04/23 08:16:19;;;;;;;9.38;1.95;;;20.00;99.90;;;;;;4091330;29;20178;-96
2023/04/23 08:18:23;;;;;;;7.75;1.95;;;19.90;99.90;;;;;;4090597;29;20171;-94
2023/04/23 08:20:27;;;;;;;8.85;1.92;;;19.60;99.90;;;;;;4106732;29;20246;-95
2023/04/23 08:22:31;;;;;;;9.05;2.10;;;19.10;99.90;;;;;;4089667;29;20172;-95
2023/04/23 08:24:32;;;;;;;8.55;1.70;;;19.00;99.90;;;;;;4089985;29;20207;-94
2023/04/23 08:26:42;;;;;;;6.72;1.85;;;18.70;99.90;;;;;;4088651;29;20219;-94
2023/04/23 08:28:43;;;;;;;9.65;2.22;;;18.60;99.90;;;;;;4091246;29;20180;-95
2023/04/23 08:30:53;;;;;;;5.90;1.80;;;18.70;99.90;;;;;;4086859;29;20175;-95
2023/04/23 08:32:57;;;;;;;12.02;2.10;;;18.60;99.90;;;;;;4090189;29;20233;-94
2023/04/23 08:34:58;;;;;;;8.07;1.92;;;19.20;99.90;;;;;;4094628;29;20641;-94
2023/04/23 08:37:16;;;;;;;8.75;1.60;;;19.60;99.90;;;;;;4109050;28;20187;-95
2023/04/23 08:39:20;;;;;;;6.20;1.58;;;19.70;99.90;;;;;;4106988;29;20191;-94
2023/04/23 08:41:25;;;;;;;6.95;1.75;;;19.10;99.90;;;;;;4089862;29;20645;-94
2023/04/23 08:43:45;;;;;;;12.13;2.15;;;18.50;99.90;;;;;;4107140;28;20258;-95
2023/04/23 08:46:11;;;;;;;7.25;1.70;;;18.60;99.90;;;;;;4093419;29;20176;-96
2023/04/23 08:48:19;;;;;;;7.35;1.83;;;18.70;99.90;;;;;;4093495;29;20167;-95
2023/04/23 08:50:29;;;;;;;11.55;1.88;;;18.80;99.90;;;;;;4086431;29;20299;-95
2023/04/23 08:52:37;;;;;;;8.52;2.17;;;18.40;99.90;;;;;;4092687;29;20243;-94
2023/04/23 08:54:44;;;;;;;7.28;1.70;;;18.20;99.90;;;;;;4091820;29;20196;-94
2023/04/23 08:56:59;;;;;;;12.32;2.10;;;18.10;99.90;;;;;;4092036;29;20187;-94
2023/04/23 08:59:02;;;;;;;8.60;1.83;;;18.20;99.90;;;;;;4089145;29;20183;-94
2023/04/23 09:01:09;;;;;;;10.48;1.90;;;17.70;99.90;;;;;;4104393;28;20324;-93
2023/04/23 09:03:10;;;;;;;7.45;1.55;;;17.70;99.90;;;;;;4103612;28;20175;-93
2023/04/23 09:05:14;;;;;;;7.68;1.75;;;17.80;99.90;;;;;;4104972;29;20183;-94
2023/04/23 09:07:30;;;;;;;6.68;1.65;;;18.10;99.90;;;;;;4093601;29;20183;-95
2023/04/23 09:09:43;;;;;;;9.88;2.00;;;18.30;99.90;;;;;;4078327;29;20192;-95
2023/04/23 09:11:45;;;;;;;11.93;1.80;;;18.40;99.90;;;;;;4046609;29;20220;-95
2023/04/23 09:13:47;;;;;;;9.05;1.83;;;18.10;99.90;;;;;;4060787;29;20300;-95
2023/04/23 09:15:50;;;;;;;11.43;2.67;;;18.10;99.90;;;;;;4059131;29;20271;-94
2023/04/23 09:17:51;;;;;;;15.73;1.85;;;17.80;99.90;;;;;;4042664;29;20197;-94
2023/04/23 09:19:53;;;;;;;7.20;1.48;;;17.60;99.90;;;;;;4042512;29;20194;-93
2023/04/23 09:21:59;;;;;;;6.85;1.58;;;17.40;99.90;;;;;;4056905;29;20238;-93
2023/04/23 09:24:13;;;;;;;7.72;1.27;;;17.20;99.90;;;;;;4042164;29;20218;-94
2023/04/23 09:26:21;;;;;;;10.93;1.65;;;17.10;99.90;;;;;;4056504;29;20211;-95
2023/04/23 09:28:36;;;;;;;10.43;1.83;;;17.20;99.90;;;;;;4058717;29;20279;-94
2023/04/23 09:30:52;;;;;;;3.83;1.20;;;17.20;99.90;;;;;;4057124;29;20185;-92
2023/04/23 09:32:53;;;;;;;8.48;1.40;;;16.90;99.90;;;;;;4057628;29;20280;-93
2023/04/23 09:34:55;;;;;;;13.73;1.80;;;17.00;99.90;;;;;;4041836;29;20296;-94
2023/04/23 09:37:05;;;;;;;12.43;1.80;;;17.00;99.90;;;;;;4074704;29;20225;-94
2023/04/23 09:39:14;;;;;;;11.35;1.50;;;16.90;99.90;;;;;;4057832;29;20180;-94
2023/04/23 09:41:21;;;;;;;10.20;1.63;;;17.10;99.90;;;;;;4078419;29;20190;-93
2023/04/23 09:43:28;;;;;;;8.00;1.58;;;17.00;99.90;;;;;;4089964;29;20211;-95
2023/04/23 09:45:34;;;;;;;8.68;1.75;;;17.30;99.90;;;;;;4088035;29;20265;-95
2023/04/23 09:47:55;;;;;;;8.15;1.70;;;17.20;99.90;;;;;;4092602;29;20216;-93
2023/04/23 09:49:57;;;;;;;7.60;1.88;;;17.50;99.90;;;;;;4092385;29;20277;-93
2023/04/23 09:52:06;;;;;;;6.05;1.40;;;17.50;99.90;;;;;;4090808;29;20226;-95
2023/04/23 09:54:17;;;;;;;8.18;1.67;;;17.20;99.90;;;;;;4088981;29;20599;-94
2023/04/23 09:56:28;;;;;;;10.32;1.73;;;17.30;99.90;;;;;;4104247;29;20187;-94
2023/04/23 09:58:29;;;;;;;10.68;1.67;;;17.10;99.90;;;;;;4087579;29;20646;-94
2023/04/23 10:00:37;;;;;;;10.85;1.80;;;17.20;99.90;;;;;;4090855;29;20180;-95
2023/04/23 10:02:40;;;;;;;11.63;1.60;;;17.30;99.90;;;;;;4105427;29;20265;-93
2023/04/23 10:04:51;;;;;;;12.77;1.92;;;17.40;99.90;;;;;;4090504;29;20227;-94
2023/04/23 10:07:07;;;;;;;11.60;1.67;;;17.50;99.90;;;;;;4089282;29;20172;-94
2023/04/23 10:09:08;;;;;;;8.18;1.73;;;17.50;99.90;;;;;;4103224;29;20249;-94
2023/04/23 10:11:21;;;;;;;12.98;1.85;;;17.60;99.90;;;;;;4131991;28;20181;-92
2023/04/23 10:13:22;;;;;;;9.40;1.40;;;17.60;99.90;;;;;;4103003;29;20255;-95
2023/04/23 10:15:25;;;;;;;12.27;1.80;;;17.30;99.90;;;;;;4106036;29;20159;-95
2023/04/23 10:17:29;;;;;;;5.05;1.30;;;17.20;99.90;;;;;;4090159;29;20240;-93
2023/04/23 10:19:31;;;;;;;10.38;1.63;;;17.00;99.90;;;;;;4090191;29;20171;-94
2023/04/23 10:21:33;;;;;;;17.88;2.10;;;17.50;99.90;;;;;;4089490;29;20171;-92
2023/04/23 10:23:35;;;;;;;10.02;1.20;;;17.90;99.90;;;;;;4088525;29;20218;-95
2023/04/23 10:25:53;;;;;;;11.80;1.63;;;17.80;99.90;;;;;;4105771;28;20193;-95
2023/04/23 10:27:57;;;;;;;11.07;1.67;;;17.60;99.90;;;;;;4090191;29;20191;-93
2023/04/23 10:29:59;;;;;;;9.75;1.40;;;17.40;99.90;;;;;;4087748;29;20548;-94
2023/04/23 10:32:02;;;;;;;10.68;1.85;;;17.10;99.90;;;;;;4087281;29;20219;-93
2023/04/23 10:34:05;;;;;;;9.32;1.48;;;17.10;99.90;;;;;;4087782;29;20287;-92
2023/04/23 10:36:06;;;;;;;13.68;1.55;;;17.20;99.90;;;;;;4101045;28;20635;-92
2023/04/23 10:38:07;;;;;;;11.68;1.55;;;17.10;99.90;;;;;;4101269;29;20171;-92
2023/04/23 10:40:13;;;;;;;7.47;1.40;;;16.80;99.90;;;;;;4100952;29;20190;-90
2023/04/23 10:42:15;;;;;;;14.82;1.77;;;16.70;99.90;;;;;;4085579;29;20183;-93
2023/04/23 10:44:16;;;;;;;12.15;1.77;;;17.10;99.90;;;;;;4085502;29;20183;-91
2023/04/23 10:46:30;;;;;;;7.82;1.30;;;17.30;99.90;;;;;;4101308;29;20179;-92
2023/04/23 10:48:50;;;;;;;14.00;1.90;;;17.60;99.90;;;;;;4085411;29;20183;-92
2023/04/23 10:50:58;;;;;;;7.95;1.30;;;17.50;99.90;;;;;;4085812;29;20204;-91
2023/04/23 10:53:01;;;;;;;7.35;1.33;;;17.40;99.90;;;;;;4100868;29;20631;-92
2023/04/23 10:55:02;;;;;;;8.73;1.27;;;17.20;99.90;;;;;;4101585;28;20727;-91
2023/04/23 10:57:04;;;;;;;11.27;1.65;;;17.40;99.90;;;;;;4117133;28;20178;-91
2023/04/23 10:59:07;;;;;;;10.10;1.48;;;17.60;99.90;;;;;;4116815;28;20178;-92
2023/04/23 11:01:08;;;;;;;10.05;1.40;;;17.50;99.90;;;;;;4100956;29;20171;-91
2023/04/23 11:03:28;;;;;;;5.68;1.33;;;17.60;99.90;;;;;;4100937;28;20179;-90
2023/04/23 11:05:29;;;;;;;7.38;1.33;;;18.10;99.90;;;;;;4100698;29;20231;-91
2023/04/23 11:07:32;;;;;;;12.60;1.70;;;18.40;99.90;;;;;;4101067;29;20178;-91
2023/04/23 11:09:45;;;;;;;10.52;1.50;;;18.60;99.90;;;;;;4100424;29;20211;-93
2023/04/23 11:11:47;;;;;;;8.63;1.27;;;18.20;99.90;;;;;;4100897;29;20211;-92
2023/04/23 11:13:52;;;;;;;9.05;1.35;;;17.90;99.90;;;;;;4100265;28;20198;-90
2023/04/23 11:16:17;;;;;;;5.72;1.27;;;17.70;99.90;;;;;;4100727;28;20185;-92
2023/04/23 11:18:17;;;;;;;12.68;1.27;;;17.70;99.90;;;;;;4100845;29;20194;-91
2023/04/23 11:20:20;;;;;;;5.68;1.20;;;17.60;99.90;;;;;;4116583;28;20651;-90
2023/04/23 11:22:23;;;;;;;8.77;1.88;;;17.40;99.90;;;;;;4100446;28;20326;-91
2023/04/23 11:24:31;;;;;;;8.32;1.35;;;17.10;99.90;;;;;;4100519;28;20223;-90
2023/04/23 11:26:33;;;;;;;8.18;0.90;;;17.00;99.90;;;;;;4100741;28;20190;-91
2023/04/23 11:28:35;;;;;;;9.82;0.95;;;16.80;99.90;;;;;;4100766;29;20178;-92
2023/04/23 11:30:36;;;;;;;7.35;1.38;;;16.70;99.90;;;;;;4100932;29;20174;-91
2023/04/23 11:32:38;;;;;;;6.47;1.10;;;16.70;99.90;;;;;;4100562;29;20221;-92
2023/04/23 11:34:40;;;;;;;6.05;1.42;;;16.70;99.90;;;;;;4100199;28;20195;-91
2023/04/23 11:36:41;;;;;;;4.05;0.70;;;16.50;99.90;;;;;;4116394;28;20190;-90
2023/04/23 11:38:42;;;;;;;9.68;1.35;;;16.40;99.90;;;;;;4100472;29;20183;-91
2023/04/23 11:40:47;;;;;;;8.20;1.10;;;16.10;99.90;;;;;;4100482;29;20649;-90
2023/04/23 11:42:54;;;;;;;5.00;1.45;;;16.20;99.90;;;;;;4100261;29;20178;-90
2023/04/23 11:44:54;;;;;;;5.35;1.45;;;15.90;99.90;;;;;;4100287;28;20203;-92
2023/04/23 11:46:59;;;;;;;8.82;1.50;;;16.00;99.90;;;;;;4116200;28;20213;-91
2023/04/23 11:49:00;;;;;;;4.70;0.95;;;16.00;99.90;;;;;;4116033;28;20182;-92
2023/04/23 11:51:01;;;;;;;7.70;1.60;;;15.80;99.90;;;;;;4100374;29;20698;-92
2023/04/23 11:53:08;;;;;;;8.82;1.10;;;15.90;99.90;;;;;;4100256;28;20711;-92
2023/04/23 11:55:09;;;;;;;5.20;1.10;;;15.80;99.90;;;;;;4100316;29;20171;-90
2023/04/23 11:57:10;;;;;;;6.28;1.13;;;15.80;99.90;;;;;;4100338;29;20179;-91
2023/04/23 11:59:11;;;;;;;7.03;1.20;;;15.70;99.90;;;;;;4099761;29;20639;-90
2023/04/23 12:01:12;;;;;;;5.07;1.38;;;15.80;99.90;;;;;;4099956;29;20163;-92
2023/04/23 12:03:15;;;;;;;5.75;0.90;;;16.00;99.90;;;;;;4115906;28;20658;-91
2023/04/23 12:05:20;;;;;;;5.20;1.08;;;16.50;99.90;;;;;;4100094;29;20185;-90
2023/04/23 12:07:31;;;;;;;4.35;0.95;;;16.40;99.90;;;;;;4100019;29;20189;-93
2023/04/23 12:09:32;;;;;;;7.45;1.25;;;16.20;99.90;;;;;;4099944;29;20297;-92
2023/04/23 12:11:35;;;;;;;8.77;1.30;;;16.10;99.90;;;;;;4115960;28;20213;-90
2023/04/23 12:13:39;;;;;;;12.43;1.40;;;16.40;99.90;;;;;;4099841;28;20671;-91
2023/04/23 12:16:03;;;;;;;6.78;1.50;;;16.20;99.90;;;;;;4099922;29;20171;-90
2023/04/23 12:18:10;;;;;;;5.05;1.20;;;15.80;99.90;;;;;;4115681;28;20217;-91
2023/04/23 12:20:19;;;;;;;8.65;1.50;;;15.60;99.90;;;;;;4117283;28;20205;-92
2023/04/23 12:22:26;;;;;;;6.90;1.10;;;15.70;99.90;;;;;;4100239;29;20205;-91
2023/04/23 12:24:50;;;;;;;6.80;1.30;;;15.80;99.90;;;;;;4100124;28;20643;-93
2023/04/23 12:27:01;;;;;;;5.18;1.25;;;15.70;99.90;;;;;;4100147;29;20713;-91
2023/04/23 12:29:02;;;;;;;7.03;1.23;;;15.60;99.90;;;;;;4100125;29;20186;-92
2023/04/23 12:31:02;;;;;;;8.05;1.13;;;15.40;99.90;;;;;;4099817;28;20175;-90